createdAt,value
2023-02-27T00:00:00.925Z,99667.11
2023-02-27T00:02:31.658Z,99664.49
2023-02-27T00:05:02.625Z,99664.19
2023-02-27T00:07:33.442Z,99661.23
2023-02-27T00:10:05.221Z,99661.65
2023-02-27T00:12:38.075Z,99661.80
2023-02-27T00:15:11.281Z,99666.05
2023-02-27T00:17:42.565Z,99667.41
2023-02-27T00:20:16.468Z,99664.34
2023-02-27T00:22:47.987Z,99666.40
2023-02-27T00:25:19.238Z,99667.76
2023-02-27T00:27:49.977Z,99670.52
2023-02-27T00:30:20.998Z,99665.97
2023-02-27T00:32:51.756Z,99668.02
2023-02-27T00:35:22.794Z,99667.77
2023-02-27T00:37:53.671Z,99661.34
2023-02-27T00:40:25.514Z,99666.27
2023-02-27T00:42:56.749Z,99668.16
2023-02-27T00:45:28.555Z,99669.31
2023-02-27T00:47:59.279Z,99668.05
2023-02-27T00:50:30.095Z,99667.02
2023-02-27T00:53:00.938Z,99667.80
2023-02-27T00:55:31.980Z,99668.41
2023-02-27T00:58:02.735Z,99668.04
2023-02-27T01:00:33.974Z,99669.68
2023-02-27T01:03:04.991Z,99669.54
2023-02-27T01:05:36.091Z,99670.05
2023-02-27T01:08:07.470Z,99671.59
2023-02-27T01:10:38.230Z,99667.33
2023-02-27T01:13:10.950Z,99662.35
2023-02-27T01:15:41.974Z,99665.39
2023-02-27T01:18:12.861Z,99666.70
2023-02-27T01:20:43.974Z,99670.56
2023-02-27T01:23:14.908Z,99676.06
2023-02-27T01:25:45.570Z,99673.45
2023-02-27T01:28:17.128Z,99677.67
2023-02-27T01:30:48.286Z,99680.69
2023-02-27T01:33:19.111Z,99681.79
2023-02-27T01:35:52.180Z,99681.52
2023-02-27T01:38:22.906Z,99681.20
2023-02-27T01:40:53.754Z,99688.62
2023-02-27T01:43:25.390Z,99684.98
2023-02-27T01:45:56.264Z,99691.78
2023-02-27T01:48:29.700Z,99694.95
2023-02-27T01:51:03.677Z,99696.89
2023-02-27T01:53:39.823Z,99700.17
2023-02-27T01:56:13.826Z,99704.52
2023-02-27T01:58:47.173Z,99706.18
2023-02-27T02:01:18.374Z,99711.64
2023-02-27T02:03:54.237Z,99713.52
2023-02-27T02:06:25.175Z,99709.10
2023-02-27T02:08:59.207Z,99702.59
2023-02-27T02:11:30.520Z,99719.95
2023-02-27T02:14:03.712Z,99727.26
2023-02-27T02:16:49.778Z,99725.11
2023-02-27T02:19:46.461Z,99726.48
2023-02-27T02:22:50.139Z,99730.39
2023-02-27T02:25:48.279Z,99726.20
2023-02-27T02:28:31.808Z,99731.05
2023-02-27T02:31:40.719Z,99734.81
2023-02-27T02:34:38.064Z,99738.06
2023-02-27T02:37:45.854Z,99741.73
2023-02-27T02:40:27.948Z,99738.33
2023-02-27T02:43:06.929Z,99741.41
2023-02-27T02:45:49.473Z,99745.30
2023-02-27T02:48:27.815Z,99745.84
2023-02-27T02:51:09.294Z,99753.64
2023-02-27T02:53:50.720Z,99751.05
2023-02-27T02:56:27.582Z,99759.54
2023-02-27T02:59:04.495Z,99759.82
2023-02-27T03:01:40.628Z,99764.16
2023-02-27T03:04:15.121Z,99760.48
2023-02-27T03:06:51.434Z,99761.72
2023-02-27T03:09:29.632Z,99761.63
2023-02-27T03:12:03.522Z,99764.44
2023-02-27T03:14:35.778Z,99768.18
2023-02-27T03:17:10.500Z,99769.88
2023-02-27T03:19:47.913Z,99768.60
2023-02-27T03:22:23.161Z,99779.11
2023-02-27T03:24:57.175Z,99782.44
2023-02-27T03:27:31.437Z,99785.95
2023-02-27T03:30:08.160Z,99792.45
2023-02-27T03:32:45.885Z,99794.65
2023-02-27T03:35:17.408Z,99795.63
2023-02-27T03:38:00.213Z,99788.42
2023-02-27T03:40:36.665Z,99793.84
2023-02-27T03:43:18.568Z,99797.79
2023-02-27T03:45:56.581Z,99799.65
2023-02-27T03:48:27.812Z,99801.47
2023-02-27T03:50:58.751Z,99799.19
2023-02-27T03:53:34.219Z,99796.02
2023-02-27T03:56:08.088Z,99792.38
2023-02-27T03:58:37.433Z,99796.89
2023-02-27T04:01:08.778Z,99791.33
2023-02-27T04:03:47.509Z,99793.20
2023-02-27T04:06:35.860Z,99790.19
2023-02-27T04:09:18.391Z,99785.23
2023-02-27T04:12:02.274Z,99786.92
2023-02-27T04:14:44.986Z,99789.08
2023-02-27T04:17:26.464Z,99788.10
2023-02-27T04:20:22.237Z,99791.64
2023-02-27T04:22:59.544Z,99787.52
2023-02-27T04:25:53.370Z,99790.95
2023-02-27T04:28:36.284Z,99791.35
2023-02-27T04:31:16.914Z,99797.20
2023-02-27T04:33:52.260Z,99799.08
2023-02-27T04:36:29.576Z,99796.81
2023-02-27T04:39:06.436Z,99798.73
2023-02-27T04:41:44.128Z,99797.45
2023-02-27T04:44:17.511Z,99801.63
2023-02-27T04:46:49.925Z,99799.89
2023-02-27T04:49:25.752Z,99798.44
2023-02-27T04:52:03.362Z,99797.33
2023-02-27T04:54:39.582Z,99797.21
2023-02-27T04:57:18.054Z,99799.41
2023-02-27T04:59:53.966Z,99797.77
2023-02-27T05:02:30.243Z,99803.16
2023-02-27T05:05:05.123Z,99791.57
2023-02-27T05:07:40.512Z,99804.94
2023-02-27T05:10:16.123Z,99806.42
2023-02-27T05:12:52.113Z,99807.77
2023-02-27T05:15:27.030Z,99811.41
2023-02-27T05:18:01.804Z,99813.70
2023-02-27T05:20:43.444Z,99813.77
2023-02-27T05:23:22.150Z,99815.81
2023-02-27T05:26:01.568Z,99799.94
2023-02-27T05:28:39.316Z,99814.30
2023-02-27T05:31:19.381Z,99813.48
2023-02-27T05:33:56.141Z,99818.81
2023-02-27T05:36:34.752Z,99821.06
2023-02-27T05:39:08.486Z,99825.30
2023-02-27T05:41:44.571Z,99829.10
2023-02-27T05:44:21.093Z,99829.52
2023-02-27T05:46:57.664Z,99829.84
2023-02-27T05:49:33.450Z,99830.33
2023-02-27T05:52:08.869Z,99835.32
2023-02-27T05:54:45.321Z,99839.61
2023-02-27T05:57:22.842Z,99845.32
2023-02-27T06:00:01.331Z,99849.25
2023-02-27T06:02:32.375Z,99855.23
2023-02-27T06:05:03.423Z,99858.13
2023-02-27T06:07:35.398Z,99862.40
2023-02-27T06:10:08.353Z,99866.56
2023-02-27T06:12:39.337Z,99865.75
2023-02-27T06:15:12.087Z,99870.17
2023-02-27T06:17:43.366Z,99872.09
2023-02-27T06:20:15.674Z,99874.48
2023-02-27T06:22:46.574Z,99876.08
2023-02-27T06:25:17.617Z,99873.60
2023-02-27T06:27:48.555Z,99874.56
2023-02-27T06:30:20.929Z,99870.57
2023-02-27T06:32:51.971Z,99868.55
2023-02-27T06:35:22.935Z,99862.57
2023-02-27T06:37:54.694Z,99879.05
2023-02-27T06:40:26.666Z,99878.38
2023-02-27T06:42:57.380Z,99883.29
2023-02-27T06:45:28.233Z,99884.98
2023-02-27T06:47:59.171Z,99883.08
2023-02-27T06:50:30.863Z,99886.16
2023-02-27T06:53:01.847Z,99885.33
2023-02-27T06:55:32.893Z,99891.68
2023-02-27T06:58:03.710Z,99890.27
2023-02-27T07:00:34.802Z,99896.19
2023-02-27T07:03:05.742Z,99899.58
2023-02-27T07:05:37.702Z,99900.72
2023-02-27T07:08:09.184Z,99904.73
2023-02-27T07:10:43.016Z,99910.38
2023-02-27T07:13:16.076Z,99912.70
2023-02-27T07:15:48.491Z,99916.52
2023-02-27T07:18:19.378Z,99910.27
2023-02-27T07:20:55.260Z,99912.14
2023-02-27T07:23:26.544Z,99913.84
2023-02-27T07:25:57.645Z,99912.05
2023-02-27T07:28:29.199Z,99919.77
2023-02-27T07:31:00.016Z,99920.01
2023-02-27T07:33:32.347Z,99916.23
2023-02-27T07:36:03.097Z,99924.84
2023-02-27T07:38:34.467Z,99920.94
2023-02-27T07:41:05.345Z,99920.77
2023-02-27T07:43:36.175Z,99922.41
2023-02-27T07:46:07.349Z,99922.42
2023-02-27T07:48:39.591Z,99932.39
2023-02-27T07:51:10.427Z,99934.18
2023-02-27T07:53:41.232Z,99935.33
2023-02-27T07:56:12.553Z,99935.98
2023-02-27T07:58:43.263Z,99939.14
2023-02-27T08:01:14.198Z,99941.12
2023-02-27T08:03:45.245Z,99927.33
2023-02-27T08:06:15.954Z,99944.57
2023-02-27T08:08:47.040Z,99942.92
2023-02-27T08:11:18.514Z,99946.97
2023-02-27T08:14:05.659Z,99949.05
2023-02-27T08:16:36.740Z,99935.08
2023-02-27T08:19:07.580Z,99951.23
2023-02-27T08:21:38.769Z,99951.80
2023-02-27T08:24:10.930Z,99954.67
2023-02-27T08:26:41.856Z,99954.27
2023-02-27T08:29:13.753Z,99955.54
2023-02-27T08:31:46.923Z,99953.52
2023-02-27T08:34:17.783Z,99951.48
2023-02-27T08:36:48.592Z,99954.61
2023-02-27T08:39:20.412Z,99955.30
2023-02-27T08:41:51.593Z,99959.90
2023-02-27T08:44:22.626Z,99966.15
2023-02-27T08:46:53.365Z,99965.75
2023-02-27T08:49:25.642Z,99967.20
2023-02-27T08:51:56.483Z,99965.02
2023-02-27T08:54:27.418Z,99966.80
2023-02-27T08:56:58.130Z,99968.35
2023-02-27T08:59:28.895Z,99972.14
2023-02-27T09:02:00.341Z,99971.23
2023-02-27T09:04:31.196Z,99970.61
2023-02-27T09:07:01.878Z,99970.89
2023-02-27T09:09:32.583Z,99978.59
2023-02-27T09:12:03.276Z,99974.47
2023-02-27T09:14:34.137Z,99973.79
2023-02-27T09:17:04.848Z,99975.20
2023-02-27T09:19:36.300Z,99970.83
2023-02-27T09:22:07.074Z,99981.04
2023-02-27T09:24:38.057Z,99981.19
2023-02-27T09:27:08.853Z,99975.38
2023-02-27T09:29:39.838Z,99979.94
2023-02-27T09:32:10.695Z,99983.00
2023-02-27T09:34:41.475Z,99982.77
2023-02-27T09:37:12.319Z,99978.64
2023-02-27T09:39:44.665Z,99982.64
2023-02-27T09:42:20.642Z,99988.09
2023-02-27T09:44:53.697Z,99974.02
2023-02-27T09:47:29.899Z,99996.70
2023-02-27T09:50:04.791Z,99994.16
2023-02-27T09:52:38.679Z,99992.79
2023-02-27T09:55:14.466Z,99997.71
2023-02-27T09:57:51.229Z,100004.80
2023-02-27T10:00:41.932Z,99999.91
2023-02-27T10:03:27.983Z,100004.30
2023-02-27T10:06:14.826Z,100005.13
2023-02-27T10:08:52.520Z,100007.67
2023-02-27T10:11:33.874Z,100005.13
2023-02-27T10:14:15.315Z,100003.16
2023-02-27T10:16:47.594Z,100010.48
2023-02-27T10:19:26.311Z,100008.69
2023-02-27T10:22:01.231Z,100005.45
2023-02-27T10:24:38.121Z,100014.27
2023-02-27T10:27:15.286Z,100015.31
2023-02-27T10:29:47.285Z,100014.75
2023-02-27T10:32:23.349Z,100016.14
2023-02-27T10:35:00.619Z,100014.77
2023-02-27T10:37:31.663Z,100014.66
2023-02-27T10:40:06.305Z,100011.88
2023-02-27T10:42:41.644Z,100013.23
2023-02-27T10:45:17.521Z,100013.91
2023-02-27T10:47:48.635Z,100011.80
2023-02-27T10:50:28.558Z,100010.13
2023-02-27T10:52:59.177Z,100009.73
2023-02-27T10:55:32.431Z,100008.29
2023-02-27T10:58:07.261Z,100006.92
2023-02-27T11:00:45.281Z,100010.77
2023-02-27T11:03:25.790Z,100010.15
2023-02-27T11:05:59.465Z,100011.86
2023-02-27T11:08:32.391Z,100007.54
2023-02-27T11:11:05.492Z,100006.04
2023-02-27T11:13:38.476Z,100007.56
2023-02-27T11:16:14.451Z,100007.29
2023-02-27T11:18:46.821Z,100005.35
2023-02-27T11:21:24.470Z,100004.75
2023-02-27T11:24:07.840Z,100006.55
2023-02-27T11:26:40.654Z,100006.51
2023-02-27T11:29:19.642Z,100008.27
2023-02-27T11:31:57.500Z,100009.35
2023-02-27T11:34:34.019Z,100007.95
2023-02-27T11:37:08.035Z,100008.52
2023-02-27T11:39:41.742Z,100007.42
2023-02-27T11:42:20.931Z,100008.96
2023-02-27T11:44:59.489Z,100010.82
2023-02-27T11:47:36.222Z,100004.80
2023-02-27T11:50:44.217Z,100001.38
2023-02-27T11:53:38.478Z,99992.14
2023-02-27T11:56:13.838Z,99994.63
2023-02-27T11:58:49.816Z,99992.77
2023-02-27T12:01:27.017Z,99991.36
2023-02-27T12:04:05.576Z,99987.98
2023-02-27T12:06:42.589Z,99987.52
2023-02-27T12:09:33.175Z,99981.16
2023-02-27T12:12:09.248Z,99967.67
2023-02-27T12:14:47.169Z,99979.98
2023-02-27T12:17:26.893Z,99982.90
2023-02-27T12:20:16.740Z,99983.07
2023-02-27T12:22:50.304Z,99983.01
2023-02-27T12:25:31.703Z,99980.70
2023-02-27T12:28:08.344Z,99982.77
2023-02-27T12:30:46.093Z,99982.59
2023-02-27T12:33:23.366Z,99986.21
2023-02-27T12:36:01.226Z,99987.78
2023-02-27T12:38:32.912Z,99991.77
2023-02-27T12:41:23.550Z,99988.35
2023-02-27T12:44:08.511Z,99987.52
2023-02-27T12:46:49.626Z,99992.54
2023-02-27T12:49:29.862Z,99987.89
2023-02-27T12:52:11.418Z,99984.89
2023-02-27T12:54:50.505Z,99986.45
2023-02-27T12:57:56.352Z,99987.63
2023-02-27T13:00:30.562Z,99994.61
2023-02-27T13:03:09.470Z,99994.95
2023-02-27T13:05:54.072Z,99999.05
2023-02-27T13:08:47.864Z,99997.75
2023-02-27T13:11:26.413Z,100001.06
2023-02-27T13:14:01.402Z,99998.44
2023-02-27T13:16:38.537Z,99998.16
2023-02-27T13:19:16.863Z,99997.13
2023-02-27T13:21:52.647Z,100001.02
2023-02-27T13:24:29.223Z,100006.13
2023-02-27T13:27:05.591Z,100004.04
2023-02-27T13:29:45.563Z,100004.65
2023-02-27T13:32:36.511Z,100006.57
2023-02-27T13:35:24.821Z,100003.70
2023-02-27T13:37:58.843Z,100005.45
2023-02-27T13:40:46.145Z,100003.48
2023-02-27T13:43:50.104Z,100001.73
2023-02-27T13:46:27.461Z,100001.40
2023-02-27T13:49:28.841Z,100000.90
2023-02-27T13:52:02.427Z,100000.22
2023-02-27T13:54:41.265Z,100004.78
2023-02-27T13:57:32.794Z,100002.02
2023-02-27T14:00:21.227Z,99993.52
2023-02-27T14:03:00.317Z,99995.93
2023-02-27T14:05:37.788Z,99997.89
2023-02-27T14:08:15.528Z,99996.33
2023-02-27T14:11:00.636Z,99996.28
2023-02-27T14:14:06.034Z,99995.27
2023-02-27T14:17:03.705Z,99996.86
2023-02-27T14:20:00.796Z,99994.30
2023-02-27T14:22:41.608Z,99994.09
2023-02-27T14:25:25.773Z,99995.30
2023-02-27T14:27:59.808Z,99995.66
2023-02-27T14:30:35.090Z,99995.71
2023-02-27T14:33:17.842Z,99995.00
2023-02-27T14:35:58.009Z,99997.17
2023-02-27T14:38:31.105Z,99998.27
2023-02-27T14:41:15.169Z,99992.55
2023-02-27T14:43:55.267Z,100007.27
2023-02-27T14:46:30.738Z,100008.96
2023-02-27T14:49:04.642Z,100010.71
2023-02-27T14:51:38.649Z,100013.48
2023-02-27T14:54:16.416Z,100012.80
2023-02-27T14:56:58.073Z,100010.32
2023-02-27T14:59:31.228Z,100014.09
2023-02-27T15:02:04.993Z,100017.52
2023-02-27T15:04:36.053Z,100020.73
2023-02-27T15:07:06.969Z,100021.75
2023-02-27T15:09:42.899Z,100025.50
2023-02-27T15:12:20.289Z,100028.09
2023-02-27T15:14:55.520Z,100025.90
2023-02-27T15:17:28.928Z,100025.63
2023-02-27T15:20:00.962Z,100028.86
2023-02-27T15:22:40.056Z,100025.86
2023-02-27T15:25:32.109Z,100032.88
2023-02-27T15:28:06.287Z,100034.39
2023-02-27T15:30:37.161Z,100037.55
2023-02-27T15:33:16.584Z,100038.11
2023-02-27T15:35:49.069Z,100037.88
2023-02-27T15:38:35.026Z,100038.95
2023-02-27T15:41:07.254Z,100035.41
2023-02-27T15:43:38.414Z,100037.83
2023-02-27T15:46:10.093Z,100040.41
2023-02-27T15:48:41.709Z,100038.90
2023-02-27T15:51:13.627Z,100036.66
2023-02-27T15:53:51.666Z,100042.22
2023-02-27T15:56:27.500Z,100044.39
2023-02-27T15:59:01.098Z,100047.08
2023-02-27T16:01:35.057Z,100047.61
2023-02-27T16:04:06.158Z,100034.93
2023-02-27T16:06:40.694Z,100044.15
2023-02-27T16:09:24.502Z,100047.13
2023-02-27T16:12:13.104Z,100056.80
2023-02-27T16:14:46.532Z,100053.63
2023-02-27T16:17:30.738Z,100060.39
2023-02-27T16:20:13.893Z,100060.04
2023-02-27T16:23:04.839Z,100066.96
2023-02-27T16:25:36.152Z,100064.58
2023-02-27T16:28:07.326Z,100066.44
2023-02-27T16:30:38.141Z,100066.77
2023-02-27T16:33:23.429Z,100072.11
2023-02-27T16:36:16.972Z,100072.55
2023-02-27T16:38:48.284Z,100076.05
2023-02-27T16:41:20.844Z,100081.27
2023-02-27T16:43:53.998Z,100082.27
2023-02-27T16:46:25.143Z,100086.97
2023-02-27T16:49:02.517Z,100083.06
2023-02-27T16:51:36.221Z,100083.85
2023-02-27T16:54:07.327Z,100072.25
2023-02-27T16:56:40.752Z,100088.96
2023-02-27T16:59:33.466Z,100093.96
2023-02-27T17:02:07.295Z,100095.94
2023-02-27T17:04:37.606Z,100093.45
2023-02-27T17:07:08.606Z,100095.52
2023-02-27T17:09:39.668Z,100096.20
2023-02-27T17:12:10.788Z,100100.44
2023-02-27T17:14:41.743Z,100088.09
2023-02-27T17:17:13.023Z,100103.52
2023-02-27T17:19:45.386Z,100102.66
2023-02-27T17:22:16.471Z,100106.20
2023-02-27T17:24:47.572Z,100110.14
2023-02-27T17:27:18.544Z,100107.93
2023-02-27T17:29:49.537Z,100112.59
2023-02-27T17:32:20.516Z,100089.48
2023-02-27T17:34:53.545Z,100116.71
2023-02-27T17:37:25.042Z,100117.24
2023-02-27T17:39:56.225Z,100123.54
2023-02-27T17:42:27.614Z,100126.91
2023-02-27T17:44:58.632Z,100132.48
2023-02-27T17:47:29.808Z,100130.77
2023-02-27T17:50:00.760Z,100137.98
2023-02-27T17:52:32.242Z,100137.13
2023-02-27T17:55:03.668Z,100145.98
2023-02-27T17:57:37.672Z,100148.29
2023-02-27T18:00:11.191Z,100154.19
2023-02-27T18:02:42.262Z,100153.33
2023-02-27T18:05:14.071Z,100154.25
2023-02-27T18:07:45.389Z,100152.73
2023-02-27T18:10:16.929Z,100156.74
2023-02-27T18:12:48.254Z,100160.40
2023-02-27T18:15:19.654Z,100158.98
2023-02-27T18:17:50.508Z,100164.39
2023-02-27T18:20:22.046Z,100170.07
2023-02-27T18:22:52.955Z,100170.63
2023-02-27T18:25:24.810Z,100171.63
2023-02-27T18:27:57.498Z,100170.77
2023-02-27T18:30:30.789Z,100173.37
2023-02-27T18:33:02.547Z,100174.02
2023-02-27T18:35:33.769Z,100179.48
2023-02-27T18:38:04.897Z,100170.80
2023-02-27T18:40:36.211Z,100185.36
2023-02-27T18:43:07.856Z,100189.05
2023-02-27T18:45:39.518Z,100189.89
2023-02-27T18:48:11.211Z,100193.33
2023-02-27T18:50:42.262Z,100194.66
2023-02-27T18:53:13.022Z,100196.52
2023-02-27T18:55:43.904Z,100190.52
2023-02-27T18:58:15.258Z,100194.81
2023-02-27T19:00:46.266Z,100195.93
2023-02-27T19:03:17.668Z,100194.46
2023-02-27T19:05:49.732Z,100198.61
2023-02-27T19:08:21.096Z,100201.64
2023-02-27T19:10:52.133Z,100206.18
2023-02-27T19:13:23.543Z,100210.00
2023-02-27T19:15:55.831Z,100214.29
2023-02-27T19:18:26.828Z,100215.25
2023-02-27T19:20:57.908Z,100216.52
2023-02-27T19:23:29.017Z,100219.23
2023-02-27T19:26:02.683Z,100221.87
2023-02-27T19:28:33.985Z,100219.65
2023-02-27T19:31:09.069Z,100223.42
2023-02-27T19:33:40.895Z,100223.80
2023-02-27T19:36:14.488Z,100225.73
2023-02-27T19:38:46.117Z,100231.27
2023-02-27T19:41:18.363Z,100228.20
2023-02-27T19:43:50.505Z,100228.85
2023-02-27T19:46:24.093Z,100227.98
2023-02-27T19:48:55.866Z,100226.80
2023-02-27T19:51:27.163Z,100231.88
2023-02-27T19:53:58.301Z,100228.60
2023-02-27T19:56:31.142Z,100227.08
2023-02-27T19:59:02.943Z,100228.92
2023-02-27T20:01:37.143Z,100228.06
2023-02-27T20:04:11.226Z,100229.07
2023-02-27T20:06:43.173Z,100228.73
2023-02-27T20:09:15.675Z,100228.04
2023-02-27T20:11:47.127Z,100225.46
2023-02-27T20:14:19.349Z,100226.67
2023-02-27T20:16:50.393Z,100222.31
2023-02-27T20:19:22.621Z,100222.48
2023-02-27T20:21:54.453Z,100223.62
2023-02-27T20:24:27.475Z,100221.34
2023-02-27T20:27:00.233Z,100218.33
2023-02-27T20:29:31.032Z,100220.75
2023-02-27T20:32:02.397Z,100222.03
2023-02-27T20:34:33.429Z,100222.16
2023-02-27T20:37:04.384Z,100219.42
2023-02-27T20:39:35.369Z,100223.16
2023-02-27T20:42:08.302Z,100227.86
2023-02-27T20:44:39.777Z,100231.30
2023-02-27T20:47:10.593Z,100232.90
2023-02-27T20:49:42.212Z,100239.62
2023-02-27T20:52:13.432Z,100245.39
2023-02-27T20:54:44.550Z,100243.14
2023-02-27T20:57:15.741Z,100248.58
2023-02-27T20:59:50.394Z,100247.98
2023-02-27T21:02:22.027Z,100252.52
2023-02-27T21:04:54.198Z,100256.94
2023-02-27T21:07:25.667Z,100238.00
2023-02-27T21:09:56.613Z,100254.45
2023-02-27T21:12:27.783Z,100248.48
2023-02-27T21:15:00.048Z,100251.25
2023-02-27T21:17:30.821Z,100252.15
2023-02-27T21:20:06.689Z,100249.41
2023-02-27T21:22:40.707Z,100249.30
2023-02-27T21:25:10.193Z,100248.42
2023-02-27T21:27:43.795Z,100255.99
2023-02-27T21:30:16.200Z,100253.59
2023-02-27T21:32:47.344Z,100254.90
2023-02-27T21:35:19.038Z,100262.98
2023-02-27T21:37:50.005Z,100257.37
2023-02-27T21:40:21.156Z,100256.59
2023-02-27T21:42:53.043Z,100243.48
2023-02-27T21:45:24.075Z,100250.97
2023-02-27T21:47:54.733Z,100250.00
2023-02-27T21:50:25.659Z,100244.14
2023-02-27T21:52:56.595Z,100248.86
2023-02-27T21:55:27.541Z,100247.64
2023-02-27T21:57:58.412Z,100250.02
2023-02-27T22:00:30.785Z,100245.84
2023-02-27T22:03:01.639Z,100243.32
2023-02-27T22:05:32.705Z,100236.16
2023-02-27T22:08:03.496Z,100248.45
2023-02-27T22:10:36.238Z,100249.54
2023-02-27T22:13:07.106Z,100250.98
2023-02-27T22:15:40.003Z,100247.11
2023-02-27T22:18:11.035Z,100247.86
2023-02-27T22:20:42.968Z,100247.83
2023-02-27T22:23:14.044Z,100246.66
2023-02-27T22:25:44.892Z,100245.52
2023-02-27T22:28:15.914Z,100242.71
2023-02-27T22:30:48.273Z,100235.73
2023-02-27T22:33:19.243Z,100242.73
2023-02-27T22:35:49.999Z,100242.14
2023-02-27T22:38:20.939Z,100242.77
2023-02-27T22:40:51.765Z,100239.63
2023-02-27T22:43:22.960Z,100241.27
2023-02-27T22:45:53.963Z,100241.09
2023-02-27T22:48:24.954Z,100242.12
2023-02-27T22:51:03.251Z,100243.70
2023-02-27T22:53:38.361Z,100245.90
2023-02-27T22:56:12.796Z,100246.76
2023-02-27T22:58:44.870Z,100246.45
2023-02-27T23:01:17.371Z,100243.61
2023-02-27T23:03:50.206Z,100246.05
2023-02-27T23:06:23.136Z,100244.03
2023-02-27T23:08:54.199Z,100249.61
2023-02-27T23:11:25.390Z,100252.12
2023-02-27T23:13:57.002Z,100246.78
2023-02-27T23:16:28.582Z,100252.71
2023-02-27T23:19:00.403Z,100259.98
2023-02-27T23:21:36.649Z,100258.91
2023-02-27T23:24:12.674Z,100259.33
2023-02-27T23:26:45.284Z,100236.66
2023-02-27T23:29:16.239Z,100256.03
2023-02-27T23:31:48.088Z,100255.52
2023-02-27T23:34:19.119Z,100255.80
2023-02-27T23:36:50.280Z,100256.31
2023-02-27T23:39:20.998Z,100255.47
2023-02-27T23:41:51.752Z,100251.38
2023-02-27T23:44:40.073Z,100253.71
2023-02-27T23:47:10.811Z,100242.21
2023-02-27T23:49:41.549Z,100251.76
2023-02-27T23:52:12.255Z,100250.15
2023-02-27T23:54:43.227Z,100246.17
2023-02-27T23:57:14.178Z,100247.75
2023-02-27T23:59:44.922Z,100250.95
